Time;durP1;ratioP1;P1;durP2;ratioP2;P2;SDS_P1;SDS_P2;PMS_P1;PMS_P2;Temp;Humidity;BMP_temperature;BMP_pressure;BME280_temperature;BME280_humidity;BME280_pressure;Samples;Min_cycle;Max_cycle;Signal;HPM_P1;HPM_P2
2022/12/15 00:39:31;;;;;;;3.80;2.30;;;-1.10;99.90;;;;;;5053311;28;20540;-62
2022/12/15 00:41:56;;;;;;;0.50;0.50;;;-1.10;99.90;;;;;;5053428;28;20189;-61
2022/12/15 00:44:22;;;;;;;0.20;0.20;;;-1.10;99.90;;;;;;5053133;28;20221;-61
2022/12/15 00:46:54;;;;;;;0.00;0.00;;;-1.10;99.90;;;;;;5053771;28;20180;-61
2022/12/15 01:22:22;;;;;;;0.00;0.00;;;-1.00;99.90;;;;;;5035545;28;20212;-61
2022/12/15 01:24:47;;;;;;;0.00;0.00;;;-1.00;99.90;;;;;;5053033;28;20216;-61
2022/12/15 01:27:13;;;;;;;0.33;0.33;;;-1.00;99.90;;;;;;5052782;28;20185;-61
2022/12/15 01:29:38;;;;;;;0.00;0.00;;;-1.00;99.90;;;;;;5052643;28;20660;-61
2022/12/15 01:32:04;;;;;;;0.00;0.00;;;-1.00;99.90;;;;;;5052928;28;20173;-61
2022/12/15 01:34:30;;;;;;;0.33;0.17;;;-1.00;99.90;;;;;;5052434;28;20632;-62
2022/12/15 01:36:55;;;;;;;0.00;0.00;;;-1.00;99.90;;;;;;5052798;28;20633;-61
2022/12/15 01:39:21;;;;;;;0.10;0.10;;;-1.00;99.90;;;;;;5052826;28;20199;-61
2022/12/15 01:41:46;;;;;;;0.20;0.20;;;-1.00;99.90;;;;;;5052295;28;20587;-62
2022/12/15 01:44:15;;;;;;;0.13;0.13;;;-1.00;99.90;;;;;;5052519;28;20216;-61
2022/12/15 01:46:41;;;;;;;0.00;0.00;;;-1.00;99.90;;;;;;5052088;28;20575;-61
2022/12/15 01:49:28;;;;;;;0.13;0.13;;;-1.10;99.90;;;;;;5034498;28;20258;-61
2022/12/15 01:51:58;;;;;;;0.03;0.03;;;-1.00;99.90;;;;;;5050362;28;20186;-61
2022/12/15 01:54:49;;;;;;;0.10;0.10;;;-1.00;99.90;;;;;;5052099;28;20227;-61
2022/12/15 01:57:29;;;;;;;0.10;0.10;;;-1.00;99.90;;;;;;5051818;28;20173;-62
2022/12/15 02:00:00;;;;;;;0.00;0.00;;;-1.00;99.90;;;;;;5052153;28;20268;-61
2022/12/15 02:02:29;;;;;;;0.27;0.27;;;-1.00;99.90;;;;;;5032607;28;20176;-61
2022/12/15 02:04:57;;;;;;;0.20;0.20;;;-1.00;99.90;;;;;;5043426;28;20232;-61
2022/12/15 02:07:23;;;;;;;0.00;0.00;;;-1.10;99.90;;;;;;5052078;28;20256;-61
2022/12/15 02:09:51;;;;;;;0.00;0.00;;;-1.10;99.90;;;;;;5052276;28;20174;-62
2022/12/15 02:12:47;;;;;;;0.00;0.00;;;-1.00;99.90;;;;;;5051919;28;20221;-61
2022/12/15 02:15:40;;;;;;;0.77;0.77;;;-1.00;99.90;;;;;;5052028;28;20188;-61
2022/12/15 02:18:20;;;;;;;0.13;0.13;;;-1.00;99.90;;;;;;5052022;28;20256;-62
2022/12/15 02:20:50;;;;;;;0.00;0.00;;;-1.00;99.90;;;;;;5052186;28;20207;-61
2022/12/15 02:23:39;;;;;;;0.23;0.20;;;-1.00;99.90;;;;;;5050412;28;20231;-61
2022/12/15 02:26:36;;;;;;;0.93;0.93;;;-1.10;99.90;;;;;;5051906;28;20203;-61
2022/12/15 02:29:34;;;;;;;0.00;0.00;;;-1.10;99.90;;;;;;5057304;28;20486;-61
2022/12/15 02:32:10;;;;;;;0.00;0.00;;;-1.10;99.90;;;;;;5064101;28;20559;-61
2022/12/15 02:35:01;;;;;;;0.00;0.00;;;-1.10;99.90;;;;;;5050960;28;20272;-61
2022/12/15 02:37:36;;;;;;;0.00;0.00;;;-1.10;99.90;;;;;;5051989;28;20184;-61
2022/12/15 02:40:03;;;;;;;0.23;0.23;;;-1.10;99.90;;;;;;5051659;28;20295;-61
2022/12/15 02:42:31;;;;;;;0.07;0.07;;;-1.10;99.90;;;;;;5051553;28;20261;-61
2022/12/15 02:45:11;;;;;;;0.00;0.00;;;-1.10;99.90;;;;;;5051409;28;20769;-61
2022/12/15 02:47:45;;;;;;;0.10;0.10;;;-1.10;99.90;;;;;;5031908;28;20214;-61
2022/12/15 02:50:16;;;;;;;0.00;0.00;;;-1.10;99.90;;;;;;5036261;28;20256;-61
2022/12/15 02:52:59;;;;;;;0.30;0.30;;;-1.20;99.90;;;;;;5051472;28;20182;-61
2022/12/15 02:55:34;;;;;;;1.40;0.83;;;-1.20;99.90;;;;;;5051567;28;20184;-61
2022/12/15 02:58:17;;;;;;;0.00;0.00;;;-1.10;99.90;;;;;;5050699;28;20445;-61
2022/12/15 03:00:49;;;;;;;0.20;0.20;;;-1.20;99.90;;;;;;5051247;28;20223;-61
2022/12/15 03:03:19;;;;;;;0.00;0.00;;;-1.20;99.90;;;;;;5050048;28;20211;-61
2022/12/15 03:05:48;;;;;;;0.00;0.00;;;-1.10;99.90;;;;;;5051381;28;20185;-61
2022/12/15 03:08:13;;;;;;;0.00;0.00;;;-1.10;99.90;;;;;;5051398;28;20189;-61
2022/12/15 03:10:39;;;;;;;0.00;0.00;;;-1.10;99.90;;;;;;5051006;28;20202;-61
2022/12/15 03:13:04;;;;;;;0.10;0.10;;;-1.10;99.90;;;;;;5051490;28;20273;-61
2022/12/15 03:15:30;;;;;;;0.33;0.33;;;-1.10;99.90;;;;;;5050320;28;20631;-61
2022/12/15 03:17:55;;;;;;;0.10;0.10;;;-1.10;99.90;;;;;;5051100;28;20556;-61
2022/12/15 03:20:21;;;;;;;0.00;0.00;;;-1.10;99.90;;;;;;5051269;28;20189;-61
2022/12/15 03:22:46;;;;;;;0.00;0.00;;;-1.10;99.90;;;;;;5051111;28;20184;-61
2022/12/15 03:25:12;;;;;;;0.17;0.17;;;-1.00;99.90;;;;;;5051529;28;20174;-61
2022/12/15 03:27:38;;;;;;;0.13;0.13;;;-1.10;99.90;;;;;;5051071;28;20540;-61
2022/12/15 03:30:04;;;;;;;0.23;0.23;;;-1.10;99.90;;;;;;5050896;28;20184;-61
2022/12/15 03:32:30;;;;;;;0.17;0.17;;;-1.10;99.90;;;;;;5051427;28;20232;-62
2022/12/15 03:34:56;;;;;;;0.00;0.00;;;-1.00;99.90;;;;;;5050897;28;20604;-61
2022/12/15 03:37:21;;;;;;;0.10;0.10;;;-1.10;99.90;;;;;;5051133;28;20664;-61
2022/12/15 03:39:47;;;;;;;0.20;0.20;;;-1.10;99.90;;;;;;5051233;28;20193;-60
2022/12/15 03:42:12;;;;;;;0.03;0.03;;;-1.10;99.90;;;;;;5051100;28;20205;-61
2022/12/15 03:44:38;;;;;;;0.00;0.00;;;-1.10;99.90;;;;;;5050776;28;20282;-61
2022/12/15 03:47:04;;;;;;;0.00;0.00;;;-1.10;99.90;;;;;;5054222;28;20177;-61
2022/12/15 03:49:30;;;;;;;0.70;0.70;;;-1.00;99.90;;;;;;5054623;28;20520;-62
2022/12/15 03:51:55;;;;;;;0.20;0.10;;;-1.00;99.90;;;;;;5054199;28;20227;-61
2022/12/15 03:54:21;;;;;;;0.10;0.10;;;-1.00;99.90;;;;;;5054836;28;20181;-61
2022/12/15 03:56:46;;;;;;;0.00;0.00;;;-1.00;99.90;;;;;;5053853;28;20199;-61
2022/12/15 03:59:12;;;;;;;0.10;0.10;;;-1.00;99.90;;;;;;5054487;28;20640;-61
2022/12/15 04:01:45;;;;;;;0.00;0.00;;;-1.00;99.90;;;;;;5054390;28;20187;-61
2022/12/15 04:04:10;;;;;;;0.10;0.10;;;-1.00;99.90;;;;;;5052283;28;20213;-61
2022/12/15 04:06:36;;;;;;;0.00;0.00;;;-1.00;99.90;;;;;;5054048;28;20240;-61
2022/12/15 04:09:01;;;;;;;1.30;0.63;;;-1.00;99.90;;;;;;5054480;28;20186;-61
2022/12/15 04:11:27;;;;;;;0.50;0.47;;;-1.00;99.90;;;;;;5052856;28;20267;-61
2022/12/15 04:13:53;;;;;;;0.03;0.03;;;-1.00;99.90;;;;;;5054179;28;20217;-61
2022/12/15 04:16:18;;;;;;;0.63;0.63;;;-1.10;99.90;;;;;;5051740;28;20200;-61
2022/12/15 04:18:44;;;;;;;1.10;0.87;;;-1.10;99.90;;;;;;5053563;28;20686;-62
2022/12/15 04:21:09;;;;;;;0.00;0.00;;;-1.10;99.90;;;;;;5053087;28;20633;-61
2022/12/15 04:23:35;;;;;;;1.23;1.13;;;-1.10;99.90;;;;;;5054050;28;20642;-61
2022/12/15 05:31:57;;;;;;;0.00;0.00;;;-1.20;99.90;;;;;;5052978;28;20180;-63
2022/12/15 05:34:29;;;;;;;0.10;0.10;;;-1.20;99.90;;;;;;5053056;28;20173;-62
2022/12/15 05:36:56;;;;;;;0.00;0.00;;;-1.20;99.90;;;;;;5052863;28;20186;-62
2022/12/15 05:39:22;;;;;;;0.10;0.10;;;-1.20;99.90;;;;;;5052970;28;20178;-62
2022/12/15 05:41:50;;;;;;;0.00;0.00;;;-1.20;99.90;;;;;;5052874;28;20173;-62
2022/12/15 05:44:16;;;;;;;0.00;0.00;;;-1.20;99.90;;;;;;5052641;28;20620;-63
2022/12/15 05:46:42;;;;;;;0.00;0.00;;;-1.20;99.90;;;;;;5052757;28;20256;-63
2022/12/15 05:49:10;;;;;;;0.50;0.50;;;-1.20;99.90;;;;;;5052724;28;20184;-63
2022/12/15 05:51:40;;;;;;;0.00;0.00;;;-1.20;99.90;;;;;;5040839;28;20272;-63
2022/12/15 05:54:10;;;;;;;0.10;0.10;;;-1.20;99.90;;;;;;5032687;28;20703;-62
2022/12/15 05:56:37;;;;;;;1.40;0.53;;;-1.30;99.90;;;;;;5032577;28;20185;-62
2022/12/15 05:59:03;;;;;;;0.00;0.00;;;-1.30;99.90;;;;;;5032547;28;20196;-62
2022/12/15 06:01:30;;;;;;;0.00;0.00;;;-1.30;99.90;;;;;;5032635;28;20589;-62
2022/12/15 06:03:56;;;;;;;0.23;0.23;;;-1.30;99.90;;;;;;5032392;28;20221;-62
2022/12/15 06:06:22;;;;;;;0.00;0.00;;;-1.30;99.90;;;;;;5032514;28;20185;-62
2022/12/15 06:08:48;;;;;;;0.00;0.00;;;-1.30;99.90;;;;;;5046678;28;20189;-62
2022/12/15 06:11:16;;;;;;;0.53;0.53;;;-1.30;99.90;;;;;;5051758;28;20244;-62
2022/12/15 06:13:42;;;;;;;0.27;0.27;;;-1.30;99.90;;;;;;5052254;28;20204;-62
2022/12/15 06:16:18;;;;;;;0.00;0.00;;;-1.30;99.90;;;;;;5052288;28;20204;-62
2022/12/15 06:18:47;;;;;;;0.00;0.00;;;-1.30;99.90;;;;;;5052304;28;20542;-63
2022/12/15 06:21:16;;;;;;;0.00;0.00;;;-1.30;99.90;;;;;;5052140;28;20181;-62
2022/12/15 06:23:43;;;;;;;0.10;0.10;;;-1.30;99.90;;;;;;5052033;28;20212;-62
2022/12/15 06:26:20;;;;;;;0.40;0.40;;;-1.30;99.90;;;;;;5051951;28;20169;-63
2022/12/15 06:28:47;;;;;;;0.30;0.30;;;-1.30;99.90;;;;;;5038621;28;20204;-63
2022/12/15 06:31:13;;;;;;;0.10;0.10;;;-1.30;99.90;;;;;;5051934;28;20182;-62
2022/12/15 06:33:39;;;;;;;0.00;0.00;;;-1.30;99.90;;;;;;5051715;28;20279;-62
2022/12/15 06:36:08;;;;;;;0.00;0.00;;;-1.30;99.90;;;;;;5050700;28;20272;-62
2022/12/15 06:38:34;;;;;;;0.50;0.47;;;-1.30;99.90;;;;;;5051921;28;20174;-62
2022/12/15 06:41:01;;;;;;;0.10;0.10;;;-1.30;99.90;;;;;;5052130;28;20640;-62
2022/12/15 06:43:27;;;;;;;1.00;0.60;;;-1.30;99.90;;;;;;5052062;28;20193;-62
2022/12/15 06:45:54;;;;;;;0.10;0.10;;;-1.40;99.90;;;;;;5051782;28;20260;-62
2022/12/15 06:48:20;;;;;;;0.10;0.10;;;-1.40;99.90;;;;;;5051737;28;20522;-62
2022/12/15 06:50:46;;;;;;;0.00;0.00;;;-1.40;99.90;;;;;;5047030;28;20197;-62
2022/12/15 06:53:18;;;;;;;0.77;0.77;;;-1.40;99.90;;;;;;5031859;28;20170;-62
2022/12/15 06:55:44;;;;;;;0.10;0.10;;;-1.40;99.90;;;;;;5031861;28;20827;-62
2022/12/15 06:58:11;;;;;;;1.03;1.03;;;-1.40;99.90;;;;;;5031785;28;20209;-62
2022/12/15 07:00:37;;;;;;;0.00;0.00;;;-1.40;99.90;;;;;;5031706;28;20170;-62
2022/12/15 07:03:06;;;;;;;0.00;0.00;;;-1.40;99.90;;;;;;5031811;28;20526;-62
2022/12/15 07:05:31;;;;;;;0.00;0.00;;;-1.40;99.90;;;;;;5031778;28;20178;-63
2022/12/15 07:07:57;;;;;;;0.20;0.20;;;-1.40;99.90;;;;;;5039796;28;20173;-62
2022/12/15 07:10:22;;;;;;;0.00;0.00;;;-1.40;99.90;;;;;;5051771;28;20535;-62
2022/12/15 07:12:48;;;;;;;0.00;0.00;;;-1.40;99.90;;;;;;5050360;28;20316;-63
2022/12/15 07:15:14;;;;;;;0.00;0.00;;;-1.40;99.90;;;;;;5051749;28;20256;-62
2022/12/15 07:17:39;;;;;;;0.00;0.00;;;-1.50;99.90;;;;;;5051530;28;20181;-63
2022/12/15 07:20:06;;;;;;;0.00;0.00;;;-1.50;99.90;;;;;;5051624;28;20177;-63
2022/12/15 07:22:31;;;;;;;0.87;0.87;;;-1.50;99.90;;;;;;5055428;28;20674;-63
2022/12/15 07:24:57;;;;;;;0.00;0.00;;;-1.50;99.90;;;;;;5055489;28;20220;-62
2022/12/15 07:27:23;;;;;;;0.00;0.00;;;-1.60;99.90;;;;;;5054356;28;20268;-62
2022/12/15 07:29:49;;;;;;;0.37;0.37;;;-1.60;99.90;;;;;;5054873;28;20192;-62
2022/12/15 07:32:15;;;;;;;1.10;0.30;;;-1.60;99.90;;;;;;5055149;28;20173;-62
2022/12/15 07:34:41;;;;;;;0.27;0.27;;;-1.60;99.90;;;;;;5055155;28;20611;-63
2022/12/15 07:37:06;;;;;;;0.20;0.20;;;-1.60;99.90;;;;;;5055124;28;20247;-63
2022/12/15 07:39:32;;;;;;;0.10;0.10;;;-1.60;99.90;;;;;;5055138;28;20173;-63
2022/12/15 07:41:57;;;;;;;0.00;0.00;;;-1.60;99.90;;;;;;5062196;28;20209;-63
2022/12/15 07:44:23;;;;;;;0.77;0.77;;;-1.60;99.90;;;;;;5073959;28;20744;-63
2022/12/15 07:46:48;;;;;;;0.20;0.20;;;-1.60;99.90;;;;;;5054445;28;20189;-64
2022/12/15 07:49:16;;;;;;;0.57;0.30;;;-1.60;99.90;;;;;;5054813;28;20533;-60
2022/12/15 07:51:41;;;;;;;0.00;0.00;;;-1.60;99.90;;;;;;5054340;28;20186;-65
2022/12/15 07:54:10;;;;;;;0.10;0.10;;;-1.60;99.90;;;;;;5053664;28;20268;-63
2022/12/15 07:56:36;;;;;;;0.20;0.20;;;-1.60;99.90;;;;;;5054282;28;20248;-63
2022/12/15 07:59:02;;;;;;;0.47;0.43;;;-1.60;99.90;;;;;;5054690;28;20182;-63
2022/12/15 08:01:27;;;;;;;0.00;0.00;;;-1.60;99.90;;;;;;5054925;28;20586;-63
2022/12/15 08:03:53;;;;;;;0.10;0.10;;;-1.60;99.90;;;;;;5054658;28;20748;-63
2022/12/15 08:06:18;;;;;;;0.47;0.47;;;-1.70;99.90;;;;;;5054771;28;20648;-63
2022/12/15 08:08:44;;;;;;;0.10;0.10;;;-1.60;99.90;;;;;;5054736;28;20213;-63
2022/12/15 08:11:13;;;;;;;0.10;0.10;;;-1.60;99.90;;;;;;5054523;28;20251;-63
2022/12/15 08:13:39;;;;;;;0.00;0.00;;;-1.60;99.90;;;;;;5054660;28;20200;-63
2022/12/15 08:16:05;;;;;;;0.00;0.00;;;-1.50;99.90;;;;;;5054496;28;20174;-63
2022/12/15 08:18:30;;;;;;;0.30;0.30;;;-1.50;99.90;;;;;;5054514;28;20327;-63
2022/12/15 08:21:02;;;;;;;0.10;0.10;;;-1.40;99.90;;;;;;5054351;28;20177;-63
2022/12/15 08:23:27;;;;;;;0.00;0.00;;;-1.40;99.90;;;;;;5054251;28;20209;-63
2022/12/15 08:25:53;;;;;;;0.00;0.00;;;-1.40;99.90;;;;;;5054367;28;20235;-63
2022/12/15 08:28:19;;;;;;;0.83;0.73;;;-1.30;99.90;;;;;;5054268;28;20185;-63
2022/12/15 08:30:44;;;;;;;0.00;0.00;;;-1.30;99.90;;;;;;5054098;28;20205;-63
2022/12/15 08:33:10;;;;;;;0.80;0.80;;;-1.30;99.90;;;;;;5053075;28;20717;-63
2022/12/15 08:35:39;;;;;;;0.00;0.00;;;-1.20;99.90;;;;;;5054108;28;20178;-63
2022/12/15 08:38:04;;;;;;;0.10;0.10;;;-1.20;99.90;;;;;;5054212;28;20186;-63
2022/12/15 08:40:30;;;;;;;0.23;0.23;;;-1.20;99.90;;;;;;5054034;28;20181;-64
2022/12/15 08:42:55;;;;;;;0.00;0.00;;;-1.20;99.90;;;;;;5054087;28;20260;-63
2022/12/15 08:45:21;;;;;;;0.27;0.27;;;-1.10;99.90;;;;;;5053988;28;20213;-63
2022/12/15 08:47:46;;;;;;;0.60;0.60;;;-1.10;99.90;;;;;;5053835;28;20578;-63
2022/12/15 08:50:12;;;;;;;0.50;0.50;;;-1.10;99.90;;;;;;5053912;28;20177;-63
2022/12/15 08:52:40;;;;;;;0.60;0.60;;;-1.10;99.90;;;;;;5033884;28;20177;-64
2022/12/15 08:55:13;;;;;;;0.00;0.00;;;-1.20;99.90;;;;;;5033943;28;20233;-63
2022/12/15 08:57:39;;;;;;;0.30;0.23;;;-1.20;99.90;;;;;;5033933;28;20182;-63
2022/12/15 09:00:05;;;;;;;0.20;0.20;;;-1.20;99.90;;;;;;5033933;28;20178;-63
2022/12/15 09:02:31;;;;;;;0.00;0.00;;;-1.10;99.90;;;;;;5033730;28;20178;-63
2022/12/15 09:04:57;;;;;;;0.70;0.70;;;-1.10;99.90;;;;;;5033781;28;20728;-63
2022/12/15 09:07:22;;;;;;;0.40;0.40;;;-1.10;99.90;;;;;;5036825;28;20182;-63
2022/12/15 09:09:48;;;;;;;0.50;0.50;;;-1.10;99.90;;;;;;5053717;28;20208;-63
2022/12/15 09:12:13;;;;;;;0.73;0.73;;;-1.10;99.90;;;;;;5053443;28;20692;-63
2022/12/15 09:14:39;;;;;;;0.10;0.10;;;-1.10;99.90;;;;;;5053377;28;20310;-64
2022/12/15 09:17:04;;;;;;;0.00;0.00;;;-1.10;99.90;;;;;;5053420;28;20177;-63
2022/12/15 09:19:30;;;;;;;0.10;0.10;;;-1.10;99.90;;;;;;5053382;28;20182;-63
2022/12/15 09:21:55;;;;;;;0.33;0.33;;;-1.10;99.90;;;;;;5053377;28;20220;-63
2022/12/15 09:24:23;;;;;;;0.20;0.20;;;-1.10;99.90;;;;;;5053231;28;20209;-63
2022/12/15 09:26:48;;;;;;;0.00;0.00;;;-1.10;99.90;;;;;;5053221;28;20177;-63
2022/12/15 09:29:14;;;;;;;0.07;0.07;;;-1.10;99.90;;;;;;5053231;28;20177;-63
2022/12/15 09:31:42;;;;;;;0.00;0.00;;;-1.00;99.90;;;;;;5053046;28;20185;-63
2022/12/15 09:34:14;;;;;;;0.53;0.53;;;-1.00;99.90;;;;;;5053094;28;20174;-63
2022/12/15 09:36:39;;;;;;;0.57;0.57;;;-0.90;99.90;;;;;;5053004;28;20182;-63
2022/12/15 09:39:05;;;;;;;0.00;0.00;;;-0.70;99.90;;;;;;5053102;28;20182;-63
2022/12/15 09:41:34;;;;;;;0.20;0.20;;;-0.70;99.90;;;;;;5052890;28;20170;-63
2022/12/15 09:44:18;;;;;;;0.30;0.30;;;-0.70;99.90;;;;;;5052568;28;20763;-64
2022/12/15 09:47:05;;;;;;;0.13;0.13;;;-0.60;99.90;;;;;;5052736;28;20178;-63
2022/12/15 09:49:53;;;;;;;0.10;0.10;;;-0.60;99.90;;;;;;5051437;28;20200;-64
2022/12/15 09:52:23;;;;;;;0.20;0.20;;;-0.40;99.90;;;;;;5048075;28;20186;-63
2022/12/15 09:54:49;;;;;;;0.30;0.30;;;-0.40;99.90;;;;;;5032778;28;20661;-63
2022/12/15 09:57:43;;;;;;;0.23;0.23;;;-0.40;99.90;;;;;;5032813;28;20288;-63
2022/12/15 10:00:37;;;;;;;0.10;0.10;;;-0.30;99.90;;;;;;5032758;28;20532;-63
2022/12/15 10:03:29;;;;;;;0.43;0.43;;;-0.30;99.90;;;;;;5032603;28;20178;-63
2022/12/15 10:05:58;;;;;;;0.00;0.00;;;-0.40;99.90;;;;;;5032656;28;20194;-63
2022/12/15 10:08:29;;;;;;;0.00;0.00;;;-0.40;99.90;;;;;;5044009;28;20208;-63
2022/12/15 10:11:01;;;;;;;0.23;0.23;;;-0.40;99.90;;;;;;5052210;28;20700;-64
2022/12/15 10:13:53;;;;;;;0.30;0.30;;;-0.50;99.90;;;;;;5052516;28;20185;-63
2022/12/15 10:16:40;;;;;;;0.10;0.10;;;-0.50;99.90;;;;;;5052412;28;20202;-63
2022/12/15 10:19:12;;;;;;;0.10;0.10;;;-0.60;99.90;;;;;;5052421;28;20173;-63
2022/12/15 10:21:38;;;;;;;0.00;0.00;;;-0.50;99.90;;;;;;5052139;28;20256;-63
2022/12/15 10:24:21;;;;;;;0.20;0.20;;;-0.50;99.90;;;;;;5050832;28;20296;-63
2022/12/15 10:27:22;;;;;;;0.17;0.17;;;-0.40;99.90;;;;;;5052196;28;20444;-63
2022/12/15 10:30:00;;;;;;;0.37;0.37;;;-0.40;99.90;;;;;;5052143;28;20181;-63
2022/12/15 10:32:51;;;;;;;0.00;0.00;;;-0.40;99.90;;;;;;5052255;28;20180;-63
2022/12/15 10:35:24;;;;;;;0.00;0.00;;;-0.50;99.90;;;;;;5052163;28;20606;-63
2022/12/15 10:37:49;;;;;;;0.20;0.20;;;-0.50;99.90;;;;;;5051991;28;20185;-63
2022/12/15 10:40:39;;;;;;;0.00;0.00;;;-0.50;99.90;;;;;;5051705;28;20184;-61
2022/12/15 10:43:34;;;;;;;0.00;0.00;;;-0.50;99.90;;;;;;5056924;28;20181;-63
2022/12/15 10:46:14;;;;;;;0.43;0.43;;;-0.40;99.90;;;;;;5051436;28;20866;-62
2022/12/15 10:48:42;;;;;;;0.20;0.20;;;-0.40;99.90;;;;;;5050412;28;20177;-60
2022/12/15 10:51:30;;;;;;;0.10;0.10;;;-0.40;99.90;;;;;;5044370;28;20213;-62
2022/12/15 10:54:12;;;;;;;0.33;0.33;;;-0.30;99.90;;;;;;5032025;28;20178;-63
2022/12/15 10:56:51;;;;;;;0.73;0.20;;;-0.30;99.90;;;;;;5034456;28;20170;-63
2022/12/15 10:59:37;;;;;;;0.20;0.20;;;-0.30;99.90;;;;;;5040061;28;20177;-63
2022/12/15 11:02:22;;;;;;;0.00;0.00;;;-0.20;99.90;;;;;;5056239;28;20176;-63
2022/12/15 11:05:20;;;;;;;0.00;0.00;;;-0.30;99.90;;;;;;5055791;28;20205;-64
2022/12/15 11:07:55;;;;;;;0.17;0.17;;;-0.30;99.90;;;;;;5043647;28;20189;-63
2022/12/15 11:13:16;;;;;;;0.23;0.23;;;-0.20;99.90;;;;;;5055910;28;20209;-64
2022/12/15 11:15:44;;;;;;;0.10;0.10;;;-0.20;99.90;;;;;;5055643;28;20184;-63
2022/12/15 11:18:36;;;;;;;0.20;0.20;;;-0.20;99.90;;;;;;5055977;28;20177;-63
2022/12/15 11:21:09;;;;;;;0.00;0.00;;;-0.20;99.90;;;;;;5055651;28;20180;-63
2022/12/15 11:23:41;;;;;;;0.37;0.37;;;-0.10;99.90;;;;;;5060748;28;20216;-63
2022/12/15 11:26:29;;;;;;;0.73;0.73;;;-0.10;99.90;;;;;;5060280;28;20197;-63
2022/12/15 11:29:22;;;;;;;0.40;0.40;;;-0.10;99.90;;;;;;5058853;28;20695;-64
2022/12/15 11:31:49;;;;;;;0.00;0.00;;;-0.20;99.90;;;;;;5065323;28;20181;-64
2022/12/15 11:34:40;;;;;;;0.00;0.00;;;-0.20;99.90;;;;;;5075316;28;20586;-64
2022/12/15 11:37:31;;;;;;;0.13;0.13;;;-0.10;99.90;;;;;;5057703;28;20734;-63
2022/12/15 11:40:10;;;;;;;0.60;0.60;;;0.00;99.90;;;;;;5055331;28;20718;-64
2022/12/15 11:42:51;;;;;;;0.17;0.17;;;-0.10;99.90;;;;;;5057048;28;20200;-64
2022/12/15 11:45:49;;;;;;;0.00;0.00;;;-0.10;99.90;;;;;;5075100;28;20227;-61
2022/12/15 11:48:26;;;;;;;0.00;0.00;;;-0.10;99.90;;;;;;5071428;28;20536;-61
2022/12/15 11:51:03;;;;;;;0.30;0.30;;;-0.10;99.90;;;;;;5067851;28;20219;-63
2022/12/15 11:53:46;;;;;;;0.00;0.00;;;-0.10;99.90;;;;;;5053899;28;20196;-60
2022/12/15 11:56:42;;;;;;;0.20;0.20;;;-0.10;99.90;;;;;;5054786;28;20182;-64
2022/12/15 11:59:45;;;;;;;0.40;0.40;;;-0.10;99.90;;;;;;5047412;28;20640;-62
2022/12/15 12:02:35;;;;;;;0.20;0.20;;;-0.10;99.90;;;;;;5048504;28;20177;-62
2022/12/15 12:05:39;;;;;;;0.00;0.00;;;-0.10;99.90;;;;;;5038593;28;20527;-62
2022/12/15 12:08:16;;;;;;;0.60;0.60;;;-0.10;99.90;;;;;;5044201;28;20235;-62
2022/12/15 12:10:56;;;;;;;0.00;0.00;;;-0.10;99.90;;;;;;5054216;28;20173;-63
2022/12/15 12:13:45;;;;;;;0.00;0.00;;;-0.20;99.90;;;;;;5054983;28;20181;-62
2022/12/15 12:16:33;;;;;;;0.00;0.00;;;-0.20;99.90;;;;;;5054321;28;20205;-62
2022/12/15 12:19:09;;;;;;;0.00;0.00;;;-0.20;99.90;;;;;;5054452;28;20196;-62
2022/12/15 12:21:47;;;;;;;0.40;0.40;;;-0.20;99.90;;;;;;5053147;28;20181;-62
2022/12/15 12:24:22;;;;;;;0.20;0.20;;;-0.10;99.90;;;;;;5053792;28;20217;-61
2022/12/15 12:27:06;;;;;;;0.37;0.37;;;-0.10;99.90;;;;;;5053695;28;20671;-62
2022/12/15 12:29:37;;;;;;;0.00;0.00;;;-0.20;99.90;;;;;;5053904;28;20668;-63
2022/12/15 12:32:13;;;;;;;0.00;0.00;;;-0.20;99.90;;;;;;5053991;28;20181;-62
2022/12/15 12:34:38;;;;;;;0.00;0.00;;;-0.10;99.90;;;;;;5052840;28;20298;-62
2022/12/15 12:37:21;;;;;;;0.00;0.00;;;0.00;99.90;;;;;;5053915;28;20178;-62
2022/12/15 12:39:49;;;;;;;0.00;0.00;;;0.00;99.90;;;;;;5053962;28;20708;-62
2022/12/15 12:42:25;;;;;;;0.23;0.23;;;0.00;99.90;;;;;;5071880;28;20188;-62
2022/12/15 12:44:50;;;;;;;0.23;0.23;;;0.00;99.90;;;;;;5073901;28;20220;-62
2022/12/15 12:47:25;;;;;;;0.30;0.30;;;0.10;99.90;;;;;;5068903;28;20663;-62
2022/12/15 12:49:55;;;;;;;0.03;0.03;;;0.00;99.90;;;;;;5053799;28;20189;-62
2022/12/15 12:52:24;;;;;;;0.30;0.30;;;0.10;99.90;;;;;;5053673;28;20278;-62
2022/12/15 12:55:02;;;;;;;0.30;0.30;;;0.10;99.90;;;;;;5053682;28;20182;-61
2022/12/15 12:57:37;;;;;;;0.00;0.00;;;0.10;99.90;;;;;;5053754;28;20240;-62
2022/12/15 13:00:24;;;;;;;0.00;0.00;;;0.10;99.90;;;;;;5053674;28;20179;-62
2022/12/15 13:03:15;;;;;;;0.10;0.10;;;0.20;99.90;;;;;;5053510;28;20169;-62
2022/12/15 13:05:41;;;;;;;0.00;0.00;;;0.20;99.90;;;;;;5052162;28;20189;-62
2022/12/15 13:08:07;;;;;;;0.00;0.00;;;0.20;99.90;;;;;;5052807;28;20260;-63
2022/12/15 13:10:33;;;;;;;0.40;0.40;;;0.20;99.90;;;;;;5052747;28;20608;-63
2022/12/15 13:13:34;;;;;;;0.00;0.00;;;0.20;99.90;;;;;;5051840;28;20192;-62
2022/12/15 13:16:10;;;;;;;0.00;0.00;;;0.20;99.90;;;;;;5051518;28;20176;-61
2022/12/15 13:18:57;;;;;;;0.00;0.00;;;0.20;99.90;;;;;;5051798;28;20208;-62
2022/12/15 13:21:43;;;;;;;0.10;0.10;;;0.20;99.90;;;;;;5053162;28;20180;-61
2022/12/15 13:24:34;;;;;;;0.00;0.00;;;0.20;99.90;;;;;;5052976;28;20214;-62
2022/12/15 13:27:08;;;;;;;0.00;0.00;;;0.10;99.90;;;;;;5052499;28;20182;-62
2022/12/15 13:30:02;;;;;;;0.00;0.00;;;0.10;99.90;;;;;;5033095;28;20177;-63
2022/12/15 13:32:34;;;;;;;0.10;0.10;;;0.10;99.90;;;;;;5042958;28;20632;-63
2022/12/15 13:35:12;;;;;;;0.30;0.30;;;0.10;99.90;;;;;;5051088;28;20637;-62
2022/12/15 13:37:57;;;;;;;0.00;0.00;;;0.10;99.90;;;;;;5033119;28;20568;-62
2022/12/15 13:40:31;;;;;;;0.10;0.10;;;0.20;99.90;;;;;;5046469;28;20575;-63
2022/12/15 13:43:04;;;;;;;0.30;0.30;;;0.20;99.90;;;;;;5052483;28;20177;-63
2022/12/15 13:45:34;;;;;;;0.07;0.07;;;0.30;99.90;;;;;;5052204;28;20672;-63
2022/12/15 13:48:04;;;;;;;0.40;0.40;;;0.30;99.90;;;;;;5052622;28;20178;-63
2022/12/15 13:50:42;;;;;;;0.20;0.20;;;0.40;99.90;;;;;;5052427;28;20240;-63
2022/12/15 13:53:17;;;;;;;0.10;0.10;;;0.40;99.90;;;;;;5052309;28;20546;-62
2022/12/15 13:56:08;;;;;;;1.03;0.73;;;0.40;99.90;;;;;;5051745;28;20185;-63
2022/12/15 13:58:42;;;;;;;0.20;0.20;;;0.40;99.90;;;;;;5046196;28;20200;-63
2022/12/15 14:01:29;;;;;;;0.00;0.00;;;0.40;99.90;;;;;;5052391;28;20211;-63
2022/12/15 14:04:05;;;;;;;0.00;0.00;;;0.40;99.90;;;;;;5052471;28;20213;-63
2022/12/15 14:06:39;;;;;;;0.20;0.20;;;0.40;99.90;;;;;;5052256;28;20188;-63
2022/12/15 14:09:10;;;;;;;0.10;0.10;;;0.40;99.90;;;;;;5052135;28;20177;-62
2022/12/15 14:11:36;;;;;;;0.23;0.23;;;0.40;99.90;;;;;;5051465;28;20217;-63
2022/12/15 14:14:02;;;;;;;0.00;0.00;;;0.40;99.90;;;;;;5052210;28;20586;-62
2022/12/15 14:16:31;;;;;;;0.00;0.00;;;0.40;99.90;;;;;;5052083;28;20173;-62
2022/12/15 14:19:16;;;;;;;0.00;0.00;;;0.40;99.90;;;;;;5051859;28;20181;-63
2022/12/15 14:21:56;;;;;;;0.37;0.37;;;0.40;99.90;;;;;;5051945;28;20185;-63
2022/12/15 14:24:28;;;;;;;0.00;0.00;;;0.30;99.90;;;;;;5051656;28;20650;-63
2022/12/15 14:26:54;;;;;;;0.00;0.00;;;0.30;99.90;;;;;;5051616;28;20231;-63
2022/12/15 14:29:20;;;;;;;0.20;0.20;;;0.20;99.90;;;;;;5051918;28;20173;-63
2022/12/15 14:31:49;;;;;;;0.10;0.10;;;0.10;99.90;;;;;;5050812;28;20633;-63
2022/12/15 14:34:25;;;;;;;0.00;0.00;;;0.10;99.90;;;;;;5051736;28;20181;-63
2022/12/15 14:36:52;;;;;;;0.57;0.57;;;0.10;99.90;;;;;;5051383;28;20196;-62
2022/12/15 14:39:43;;;;;;;0.00;0.00;;;0.00;99.90;;;;;;5051299;28;20205;-62
2022/12/15 14:42:22;;;;;;;0.00;0.00;;;0.00;99.90;;;;;;5050915;28;20260;-63
2022/12/15 14:44:48;;;;;;;0.00;0.00;;;0.00;99.90;;;;;;5051723;28;20213;-62
2022/12/15 14:47:27;;;;;;;0.37;0.37;;;0.00;99.90;;;;;;5051804;28;20260;-62
2022/12/15 14:49:55;;;;;;;0.20;0.20;;;-0.10;99.90;;;;;;5052009;28;20239;-63
2022/12/15 14:52:28;;;;;;;0.43;0.43;;;-0.10;99.90;;;;;;5060393;28;20183;-63
2022/12/15 14:54:56;;;;;;;0.00;0.00;;;-0.10;99.90;;;;;;5071779;28;20230;-63
2022/12/15 14:57:36;;;;;;;0.00;0.00;;;-0.10;99.90;;;;;;5070430;28;20534;-63
2022/12/15 15:00:21;;;;;;;0.00;0.00;;;-0.10;99.90;;;;;;5067536;28;20591;-63
2022/12/15 15:02:46;;;;;;;0.50;0.40;;;-0.10;99.90;;;;;;5052577;28;20188;-63
2022/12/15 15:05:26;;;;;;;0.00;0.00;;;-0.10;99.90;;;;;;5051541;28;20672;-63
2022/12/15 15:07:55;;;;;;;0.00;0.00;;;-0.20;99.90;;;;;;5051356;28;20178;-62
2022/12/15 15:10:28;;;;;;;0.23;0.23;;;-0.20;99.90;;;;;;5051721;28;20181;-63
2022/12/15 15:12:54;;;;;;;0.87;0.87;;;-0.20;99.90;;;;;;5051340;28;20629;-63
2022/12/15 15:15:26;;;;;;;0.30;0.30;;;-0.20;99.90;;;;;;5051367;28;20190;-63
2022/12/15 15:17:56;;;;;;;0.00;0.00;;;-0.20;99.90;;;;;;5049367;28;20547;-62
2022/12/15 15:20:33;;;;;;;0.20;0.20;;;-0.20;99.90;;;;;;5059132;28;20188;-62
2022/12/15 15:23:03;;;;;;;0.10;0.10;;;-0.30;99.90;;;;;;5071333;28;20206;-62
2022/12/15 15:25:49;;;;;;;0.10;0.10;;;-0.30;99.90;;;;;;5061541;28;20213;-62
2022/12/15 15:28:25;;;;;;;0.10;0.10;;;-0.40;99.90;;;;;;5050988;28;20181;-62
2022/12/15 15:31:04;;;;;;;0.20;0.20;;;-0.40;99.90;;;;;;5051455;28;20177;-63
2022/12/15 15:33:30;;;;;;;0.10;0.10;;;-0.50;99.90;;;;;;5050620;28;20181;-64
2022/12/15 15:35:58;;;;;;;0.20;0.20;;;-0.50;99.90;;;;;;5051341;28;20170;-63